sensor_id;sensor_type;location;lat;lon;timestamp;P1;durP1;ratioP1;P2;durP2;ratioP2
11238;SDS011;5677;48.488;13.436;2023-02-15T00:01:17;2.03;;;1.90;;
11238;SDS011;5677;48.488;13.436;2023-02-15T00:03:45;1.87;;;1.73;;
11238;SDS011;5677;48.488;13.436;2023-02-15T00:06:14;1.83;;;1.73;;
11238;SDS011;5677;48.488;13.436;2023-02-15T00:08:41;2.40;;;1.80;;
11238;SDS011;5677;48.488;13.436;2023-02-15T00:11:09;2.10;;;1.90;;
11238;SDS011;5677;48.488;13.436;2023-02-15T00:13:38;1.67;;;1.57;;
11238;SDS011;5677;48.488;13.436;2023-02-15T00:16:07;2.43;;;1.90;;
11238;SDS011;5677;48.488;13.436;2023-02-15T00:18:36;1.80;;;1.70;;
11238;SDS011;5677;48.488;13.436;2023-02-15T00:21:06;2.13;;;1.80;;
11238;SDS011;5677;48.488;13.436;2023-02-15T00:23:35;1.80;;;1.60;;
11238;SDS011;5677;48.488;13.436;2023-02-15T00:26:03;1.60;;;1.50;;
11238;SDS011;5677;48.488;13.436;2023-02-15T00:28:31;1.83;;;1.73;;
11238;SDS011;5677;48.488;13.436;2023-02-15T00:31:02;1.70;;;1.60;;
11238;SDS011;5677;48.488;13.436;2023-02-15T00:33:29;1.63;;;1.53;;
11238;SDS011;5677;48.488;13.436;2023-02-15T00:35:56;1.60;;;1.50;;
11238;SDS011;5677;48.488;13.436;2023-02-15T00:38:25;2.33;;;1.87;;
11238;SDS011;5677;48.488;13.436;2023-02-15T00:40:52;1.73;;;1.63;;
11238;SDS011;5677;48.488;13.436;2023-02-15T00:43:19;1.90;;;1.80;;
11238;SDS011;5677;48.488;13.436;2023-02-15T00:45:46;1.93;;;1.83;;
11238;SDS011;5677;48.488;13.436;2023-02-15T00:48:13;2.03;;;1.80;;
11238;SDS011;5677;48.488;13.436;2023-02-15T00:50:40;1.70;;;1.60;;
11238;SDS011;5677;48.488;13.436;2023-02-15T00:53:07;2.17;;;1.97;;
11238;SDS011;5677;48.488;13.436;2023-02-15T00:55:35;1.80;;;1.70;;
11238;SDS011;5677;48.488;13.436;2023-02-15T00:58:04;1.80;;;1.70;;
11238;SDS011;5677;48.488;13.436;2023-02-15T01:00:30;2.20;;;2.00;;
11238;SDS011;5677;48.488;13.436;2023-02-15T01:02:57;1.57;;;1.47;;
11238;SDS011;5677;48.488;13.436;2023-02-15T01:05:24;1.97;;;1.77;;
11238;SDS011;5677;48.488;13.436;2023-02-15T01:07:51;1.53;;;1.40;;
11238;SDS011;5677;48.488;13.436;2023-02-15T01:10:17;2.00;;;1.80;;
11238;SDS011;5677;48.488;13.436;2023-02-15T01:12:46;2.07;;;1.87;;
11238;SDS011;5677;48.488;13.436;2023-02-15T01:15:13;1.83;;;1.73;;
11238;SDS011;5677;48.488;13.436;2023-02-15T01:17:39;1.63;;;1.53;;
11238;SDS011;5677;48.488;13.436;2023-02-15T01:20:07;1.80;;;1.67;;
11238;SDS011;5677;48.488;13.436;2023-02-15T01:22:34;1.93;;;1.73;;
11238;SDS011;5677;48.488;13.436;2023-02-15T01:25:01;1.77;;;1.67;;
11238;SDS011;5677;48.488;13.436;2023-02-15T01:27:28;1.57;;;1.47;;
11238;SDS011;5677;48.488;13.436;2023-02-15T01:29:56;1.70;;;1.60;;
11238;SDS011;5677;48.488;13.436;2023-02-15T01:32:23;1.60;;;1.50;;
11238;SDS011;5677;48.488;13.436;2023-02-15T01:34:51;1.77;;;1.60;;
11238;SDS011;5677;48.488;13.436;2023-02-15T01:37:18;1.67;;;1.57;;
11238;SDS011;5677;48.488;13.436;2023-02-15T01:39:45;1.93;;;1.77;;
11238;SDS011;5677;48.488;13.436;2023-02-15T01:42:11;1.70;;;1.60;;
11238;SDS011;5677;48.488;13.436;2023-02-15T01:44:49;1.70;;;1.60;;
11238;SDS011;5677;48.488;13.436;2023-02-15T01:47:23;1.77;;;1.40;;
11238;SDS011;5677;48.488;13.436;2023-02-15T01:49:58;1.90;;;1.70;;
11238;SDS011;5677;48.488;13.436;2023-02-15T01:52:31;1.90;;;1.70;;
11238;SDS011;5677;48.488;13.436;2023-02-15T01:54:59;1.73;;;1.63;;
11238;SDS011;5677;48.488;13.436;2023-02-15T01:57:27;2.10;;;1.90;;
11238;SDS011;5677;48.488;13.436;2023-02-15T01:59:56;1.70;;;1.60;;
11238;SDS011;5677;48.488;13.436;2023-02-15T02:02:28;2.23;;;1.90;;
11238;SDS011;5677;48.488;13.436;2023-02-15T02:04:57;1.60;;;1.40;;
11238;SDS011;5677;48.488;13.436;2023-02-15T02:07:29;1.70;;;1.60;;
11238;SDS011;5677;48.488;13.436;2023-02-15T02:10:00;1.53;;;1.43;;
11238;SDS011;5677;48.488;13.436;2023-02-15T02:12:28;1.83;;;1.73;;
11238;SDS011;5677;48.488;13.436;2023-02-15T02:14:55;2.00;;;1.80;;
11238;SDS011;5677;48.488;13.436;2023-02-15T02:17:26;2.20;;;2.00;;
11238;SDS011;5677;48.488;13.436;2023-02-15T02:20:17;1.80;;;1.70;;
11238;SDS011;5677;48.488;13.436;2023-02-15T02:29:19;2.03;;;1.80;;
11238;SDS011;5677;48.488;13.436;2023-02-15T02:32:10;1.70;;;1.50;;
11238;SDS011;5677;48.488;13.436;2023-02-15T02:35:01;2.07;;;1.87;;
11238;SDS011;5677;48.488;13.436;2023-02-15T02:37:36;1.90;;;1.80;;
11238;SDS011;5677;48.488;13.436;2023-02-15T02:40:13;1.83;;;1.73;;
11238;SDS011;5677;48.488;13.436;2023-02-15T02:42:47;1.80;;;1.50;;
11238;SDS011;5677;48.488;13.436;2023-02-15T02:45:20;1.60;;;1.50;;
11238;SDS011;5677;48.488;13.436;2023-02-15T02:47:52;2.57;;;2.10;;
11238;SDS011;5677;48.488;13.436;2023-02-15T02:50:25;1.63;;;1.53;;
11238;SDS011;5677;48.488;13.436;2023-02-15T02:52:54;2.00;;;1.53;;
11238;SDS011;5677;48.488;13.436;2023-02-15T02:55:23;1.70;;;1.50;;
11238;SDS011;5677;48.488;13.436;2023-02-15T02:57:53;1.97;;;1.77;;
11238;SDS011;5677;48.488;13.436;2023-02-15T03:00:24;1.70;;;1.60;;
11238;SDS011;5677;48.488;13.436;2023-02-15T03:02:58;1.97;;;1.77;;
11238;SDS011;5677;48.488;13.436;2023-02-15T03:05:31;1.53;;;1.43;;
11238;SDS011;5677;48.488;13.436;2023-02-15T03:08:00;2.07;;;1.80;;
11238;SDS011;5677;48.488;13.436;2023-02-15T03:10:31;1.70;;;1.50;;
11238;SDS011;5677;48.488;13.436;2023-02-15T03:13:00;1.87;;;1.70;;
11238;SDS011;5677;48.488;13.436;2023-02-15T03:15:28;2.73;;;2.03;;
11238;SDS011;5677;48.488;13.436;2023-02-15T03:18:18;2.00;;;1.57;;
11238;SDS011;5677;48.488;13.436;2023-02-15T03:20:51;1.77;;;1.60;;
11238;SDS011;5677;48.488;13.436;2023-02-15T03:23:20;2.10;;;1.90;;
11238;SDS011;5677;48.488;13.436;2023-02-15T03:25:51;2.43;;;2.17;;
11238;SDS011;5677;48.488;13.436;2023-02-15T03:28:23;2.43;;;1.80;;
11238;SDS011;5677;48.488;13.436;2023-02-15T03:30:54;2.17;;;1.80;;
11238;SDS011;5677;48.488;13.436;2023-02-15T03:33:22;2.07;;;1.80;;
11238;SDS011;5677;48.488;13.436;2023-02-15T03:35:52;1.97;;;1.73;;
11238;SDS011;5677;48.488;13.436;2023-02-15T03:38:24;1.67;;;1.57;;
11238;SDS011;5677;48.488;13.436;2023-02-15T03:40:56;2.03;;;1.73;;
11238;SDS011;5677;48.488;13.436;2023-02-15T03:43:39;1.83;;;1.73;;
11238;SDS011;5677;48.488;13.436;2023-02-15T03:46:13;2.03;;;1.83;;
11238;SDS011;5677;48.488;13.436;2023-02-15T03:48:44;2.30;;;1.83;;
11238;SDS011;5677;48.488;13.436;2023-02-15T03:51:18;1.90;;;1.80;;
11238;SDS011;5677;48.488;13.436;2023-02-15T03:54:00;1.90;;;1.67;;
11238;SDS011;5677;48.488;13.436;2023-02-15T03:56:28;2.07;;;1.87;;
11238;SDS011;5677;48.488;13.436;2023-02-15T03:58:55;2.33;;;1.77;;
11238;SDS011;5677;48.488;13.436;2023-02-15T04:01:39;1.97;;;1.77;;
11238;SDS011;5677;48.488;13.436;2023-02-15T04:04:24;2.27;;;1.97;;
11238;SDS011;5677;48.488;13.436;2023-02-15T04:06:55;2.03;;;1.80;;
11238;SDS011;5677;48.488;13.436;2023-02-15T04:09:22;1.93;;;1.60;;
11238;SDS011;5677;48.488;13.436;2023-02-15T04:12:06;2.00;;;1.80;;
11238;SDS011;5677;48.488;13.436;2023-02-15T04:14:33;2.20;;;1.90;;
11238;SDS011;5677;48.488;13.436;2023-02-15T04:17:17;2.20;;;2.00;;
11238;SDS011;5677;48.488;13.436;2023-02-15T04:19:44;2.10;;;1.83;;
11238;SDS011;5677;48.488;13.436;2023-02-15T04:22:30;1.80;;;1.70;;
11238;SDS011;5677;48.488;13.436;2023-02-15T04:25:14;2.00;;;1.80;;
11238;SDS011;5677;48.488;13.436;2023-02-15T04:27:42;2.00;;;1.80;;
11238;SDS011;5677;48.488;13.436;2023-02-15T04:30:10;2.13;;;1.90;;
11238;SDS011;5677;48.488;13.436;2023-02-15T04:32:38;2.33;;;1.90;;
11238;SDS011;5677;48.488;13.436;2023-02-15T04:35:05;2.07;;;1.87;;
11238;SDS011;5677;48.488;13.436;2023-02-15T04:37:35;2.10;;;1.90;;
11238;SDS011;5677;48.488;13.436;2023-02-15T04:40:02;2.20;;;2.00;;
11238;SDS011;5677;48.488;13.436;2023-02-15T04:42:30;2.87;;;2.33;;
11238;SDS011;5677;48.488;13.436;2023-02-15T04:44:57;2.33;;;2.10;;
11238;SDS011;5677;48.488;13.436;2023-02-15T04:47:24;2.43;;;1.93;;
11238;SDS011;5677;48.488;13.436;2023-02-15T04:49:50;2.40;;;2.13;;
11238;SDS011;5677;48.488;13.436;2023-02-15T04:52:17;2.40;;;2.00;;
11238;SDS011;5677;48.488;13.436;2023-02-15T04:54:45;3.30;;;2.30;;
11238;SDS011;5677;48.488;13.436;2023-02-15T04:57:12;2.20;;;2.00;;
11238;SDS011;5677;48.488;13.436;2023-02-15T04:59:39;2.10;;;1.90;;
11238;SDS011;5677;48.488;13.436;2023-02-15T05:02:06;2.40;;;2.00;;
11238;SDS011;5677;48.488;13.436;2023-02-15T05:04:33;2.00;;;1.80;;
11238;SDS011;5677;48.488;13.436;2023-02-15T05:07:00;2.10;;;1.90;;
11238;SDS011;5677;48.488;13.436;2023-02-15T05:09:27;2.20;;;1.97;;
11238;SDS011;5677;48.488;13.436;2023-02-15T05:11:55;2.37;;;1.80;;
11238;SDS011;5677;48.488;13.436;2023-02-15T05:14:22;2.27;;;1.87;;
11238;SDS011;5677;48.488;13.436;2023-02-15T05:16:48;2.23;;;2.03;;
11238;SDS011;5677;48.488;13.436;2023-02-15T05:19:15;2.37;;;2.10;;
11238;SDS011;5677;48.488;13.436;2023-02-15T05:21:42;2.00;;;1.77;;
11238;SDS011;5677;48.488;13.436;2023-02-15T05:24:08;2.37;;;2.13;;
11238;SDS011;5677;48.488;13.436;2023-02-15T05:26:49;2.10;;;1.90;;
11238;SDS011;5677;48.488;13.436;2023-02-15T05:29:35;2.00;;;1.80;;
11238;SDS011;5677;48.488;13.436;2023-02-15T05:32:01;2.33;;;2.10;;
11238;SDS011;5677;48.488;13.436;2023-02-15T05:34:29;2.13;;;1.90;;
11238;SDS011;5677;48.488;13.436;2023-02-15T05:36:56;2.50;;;2.30;;
11238;SDS011;5677;48.488;13.436;2023-02-15T05:39:22;2.30;;;2.10;;
11238;SDS011;5677;48.488;13.436;2023-02-15T05:41:49;2.17;;;1.97;;
11238;SDS011;5677;48.488;13.436;2023-02-15T05:44:16;2.27;;;2.00;;
11238;SDS011;5677;48.488;13.436;2023-02-15T05:46:44;2.47;;;2.20;;
11238;SDS011;5677;48.488;13.436;2023-02-15T05:49:11;3.00;;;2.00;;
11238;SDS011;5677;48.488;13.436;2023-02-15T05:51:38;2.33;;;2.13;;
11238;SDS011;5677;48.488;13.436;2023-02-15T05:54:04;2.43;;;1.90;;
11238;SDS011;5677;48.488;13.436;2023-02-15T05:56:31;2.10;;;1.90;;
11238;SDS011;5677;48.488;13.436;2023-02-15T05:58:58;2.50;;;2.27;;
11238;SDS011;5677;48.488;13.436;2023-02-15T06:01:25;2.43;;;2.23;;
11238;SDS011;5677;48.488;13.436;2023-02-15T06:03:53;2.17;;;1.93;;
11238;SDS011;5677;48.488;13.436;2023-02-15T06:06:20;2.67;;;2.20;;
11238;SDS011;5677;48.488;13.436;2023-02-15T06:08:47;2.90;;;2.60;;
11238;SDS011;5677;48.488;13.436;2023-02-15T06:11:14;2.10;;;1.90;;
11238;SDS011;5677;48.488;13.436;2023-02-15T06:13:41;3.00;;;2.00;;
11238;SDS011;5677;48.488;13.436;2023-02-15T06:16:08;2.47;;;2.10;;
11238;SDS011;5677;48.488;13.436;2023-02-15T06:18:35;2.10;;;1.80;;
11238;SDS011;5677;48.488;13.436;2023-02-15T06:21:03;2.30;;;1.90;;
11238;SDS011;5677;48.488;13.436;2023-02-15T06:23:29;2.60;;;2.03;;
11238;SDS011;5677;48.488;13.436;2023-02-15T06:25:56;2.23;;;2.03;;
11238;SDS011;5677;48.488;13.436;2023-02-15T06:28:23;2.27;;;2.03;;
11238;SDS011;5677;48.488;13.436;2023-02-15T06:30:50;2.10;;;1.90;;
11238;SDS011;5677;48.488;13.436;2023-02-15T06:33:18;3.00;;;2.20;;
11238;SDS011;5677;48.488;13.436;2023-02-15T06:35:44;2.90;;;2.43;;
11238;SDS011;5677;48.488;13.436;2023-02-15T06:38:13;2.03;;;1.83;;
11238;SDS011;5677;48.488;13.436;2023-02-15T06:40:40;2.47;;;2.10;;
11238;SDS011;5677;48.488;13.436;2023-02-15T06:43:06;2.20;;;2.00;;
11238;SDS011;5677;48.488;13.436;2023-02-15T06:45:33;2.13;;;1.93;;
11238;SDS011;5677;48.488;13.436;2023-02-15T06:48:00;2.97;;;2.10;;
11238;SDS011;5677;48.488;13.436;2023-02-15T06:50:27;2.30;;;2.00;;
11238;SDS011;5677;48.488;13.436;2023-02-15T06:52:55;3.00;;;2.30;;
11238;SDS011;5677;48.488;13.436;2023-02-15T06:55:24;2.97;;;2.10;;
11238;SDS011;5677;48.488;13.436;2023-02-15T06:57:51;2.20;;;1.83;;
11238;SDS011;5677;48.488;13.436;2023-02-15T07:00:18;2.30;;;2.07;;
11238;SDS011;5677;48.488;13.436;2023-02-15T07:02:47;2.33;;;2.03;;
11238;SDS011;5677;48.488;13.436;2023-02-15T07:05:13;2.40;;;2.20;;
11238;SDS011;5677;48.488;13.436;2023-02-15T07:07:40;2.20;;;2.00;;
11238;SDS011;5677;48.488;13.436;2023-02-15T07:10:07;2.20;;;2.00;;
11238;SDS011;5677;48.488;13.436;2023-02-15T07:12:36;2.30;;;1.93;;
11238;SDS011;5677;48.488;13.436;2023-02-15T07:15:07;2.43;;;2.10;;
11238;SDS011;5677;48.488;13.436;2023-02-15T07:17:34;2.40;;;2.20;;
11238;SDS011;5677;48.488;13.436;2023-02-15T07:20:02;2.30;;;2.10;;
11238;SDS011;5677;48.488;13.436;2023-02-15T07:22:30;2.43;;;2.23;;
11238;SDS011;5677;48.488;13.436;2023-02-15T07:24:58;3.03;;;2.47;;
11238;SDS011;5677;48.488;13.436;2023-02-15T07:27:25;3.13;;;2.10;;
11238;SDS011;5677;48.488;13.436;2023-02-15T07:29:53;2.43;;;2.00;;
11238;SDS011;5677;48.488;13.436;2023-02-15T07:32:20;2.40;;;2.20;;
11238;SDS011;5677;48.488;13.436;2023-02-15T07:34:47;2.43;;;2.07;;
11238;SDS011;5677;48.488;13.436;2023-02-15T07:37:13;2.53;;;2.20;;
11238;SDS011;5677;48.488;13.436;2023-02-15T07:39:40;2.63;;;2.37;;
11238;SDS011;5677;48.488;13.436;2023-02-15T07:42:07;3.17;;;2.50;;
11238;SDS011;5677;48.488;13.436;2023-02-15T07:44:33;2.00;;;1.90;;
11238;SDS011;5677;48.488;13.436;2023-02-15T07:47:02;2.60;;;1.93;;
11238;SDS011;5677;48.488;13.436;2023-02-15T07:49:28;3.07;;;2.33;;
11238;SDS011;5677;48.488;13.436;2023-02-15T07:51:55;3.27;;;2.10;;
11238;SDS011;5677;48.488;13.436;2023-02-15T07:54:22;2.80;;;2.53;;
11238;SDS011;5677;48.488;13.436;2023-02-15T07:56:48;4.57;;;2.90;;
11238;SDS011;5677;48.488;13.436;2023-02-15T07:59:15;2.30;;;2.10;;
11238;SDS011;5677;48.488;13.436;2023-02-15T08:01:42;2.30;;;2.10;;
11238;SDS011;5677;48.488;13.436;2023-02-15T08:04:10;2.43;;;2.17;;
11238;SDS011;5677;48.488;13.436;2023-02-15T08:06:37;2.57;;;2.17;;
11238;SDS011;5677;48.488;13.436;2023-02-15T08:09:04;2.30;;;2.10;;
11238;SDS011;5677;48.488;13.436;2023-02-15T08:11:32;2.70;;;2.40;;
11238;SDS011;5677;48.488;13.436;2023-02-15T08:14:01;2.87;;;2.40;;
11238;SDS011;5677;48.488;13.436;2023-02-15T08:16:32;2.73;;;2.20;;
11238;SDS011;5677;48.488;13.436;2023-02-15T08:19:01;2.70;;;2.37;;
11238;SDS011;5677;48.488;13.436;2023-02-15T08:21:31;2.33;;;2.13;;
11238;SDS011;5677;48.488;13.436;2023-02-15T08:23:59;2.57;;;2.20;;
11238;SDS011;5677;48.488;13.436;2023-02-15T08:26:26;2.77;;;2.37;;
11238;SDS011;5677;48.488;13.436;2023-02-15T08:28:54;2.33;;;2.13;;
11238;SDS011;5677;48.488;13.436;2023-02-15T08:31:22;3.13;;;2.60;;
11238;SDS011;5677;48.488;13.436;2023-02-15T08:33:49;2.33;;;2.13;;
11238;SDS011;5677;48.488;13.436;2023-02-15T08:36:18;2.60;;;2.37;;
11238;SDS011;5677;48.488;13.436;2023-02-15T08:38:47;3.33;;;2.50;;
11238;SDS011;5677;48.488;13.436;2023-02-15T08:41:15;2.50;;;2.30;;
11238;SDS011;5677;48.488;13.436;2023-02-15T08:43:43;3.03;;;2.30;;
11238;SDS011;5677;48.488;13.436;2023-02-15T08:46:11;2.20;;;2.00;;
11238;SDS011;5677;48.488;13.436;2023-02-15T08:48:39;2.37;;;2.17;;
11238;SDS011;5677;48.488;13.436;2023-02-15T08:51:07;3.40;;;2.40;;
11238;SDS011;5677;48.488;13.436;2023-02-15T08:53:36;2.97;;;2.30;;
11238;SDS011;5677;48.488;13.436;2023-02-15T08:56:05;3.23;;;2.27;;
11238;SDS011;5677;48.488;13.436;2023-02-15T08:58:34;2.50;;;2.30;;
11238;SDS011;5677;48.488;13.436;2023-02-15T09:01:07;3.27;;;2.50;;
11238;SDS011;5677;48.488;13.436;2023-02-15T09:03:35;3.13;;;2.37;;
11238;SDS011;5677;48.488;13.436;2023-02-15T09:06:01;2.83;;;2.43;;
11238;SDS011;5677;48.488;13.436;2023-02-15T09:08:28;2.40;;;2.20;;
11238;SDS011;5677;48.488;13.436;2023-02-15T09:11:03;2.43;;;2.20;;
11238;SDS011;5677;48.488;13.436;2023-02-15T09:13:36;2.87;;;2.00;;
11238;SDS011;5677;48.488;13.436;2023-02-15T09:16:05;2.17;;;1.93;;
11238;SDS011;5677;48.488;13.436;2023-02-15T09:18:34;2.30;;;2.10;;
11238;SDS011;5677;48.488;13.436;2023-02-15T09:21:06;2.63;;;2.30;;
11238;SDS011;5677;48.488;13.436;2023-02-15T09:23:34;2.70;;;2.20;;
11238;SDS011;5677;48.488;13.436;2023-02-15T09:26:02;2.43;;;2.17;;
11238;SDS011;5677;48.488;13.436;2023-02-15T09:28:32;3.13;;;2.30;;
11238;SDS011;5677;48.488;13.436;2023-02-15T09:31:04;2.70;;;2.40;;
11238;SDS011;5677;48.488;13.436;2023-02-15T09:33:35;3.27;;;2.20;;
11238;SDS011;5677;48.488;13.436;2023-02-15T09:36:03;2.80;;;2.20;;
11238;SDS011;5677;48.488;13.436;2023-02-15T09:38:31;2.87;;;2.37;;
11238;SDS011;5677;48.488;13.436;2023-02-15T09:41:02;2.30;;;2.10;;
11238;SDS011;5677;48.488;13.436;2023-02-15T09:43:44;2.33;;;2.00;;
11238;SDS011;5677;48.488;13.436;2023-02-15T09:46:32;2.57;;;2.13;;
11238;SDS011;5677;48.488;13.436;2023-02-15T09:49:09;2.57;;;2.23;;
11238;SDS011;5677;48.488;13.436;2023-02-15T09:51:53;2.70;;;2.50;;
11238;SDS011;5677;48.488;13.436;2023-02-15T09:54:42;2.77;;;2.23;;
11238;SDS011;5677;48.488;13.436;2023-02-15T09:57:30;2.30;;;2.00;;
11238;SDS011;5677;48.488;13.436;2023-02-15T10:00:06;2.23;;;1.90;;
11238;SDS011;5677;48.488;13.436;2023-02-15T10:02:54;2.63;;;2.40;;
11238;SDS011;5677;48.488;13.436;2023-02-15T10:05:38;2.60;;;2.40;;
11238;SDS011;5677;48.488;13.436;2023-02-15T10:08:23;2.97;;;2.10;;
11238;SDS011;5677;48.488;13.436;2023-02-15T10:11:10;2.93;;;2.27;;
11238;SDS011;5677;48.488;13.436;2023-02-15T10:14:01;2.80;;;2.20;;
11238;SDS011;5677;48.488;13.436;2023-02-15T10:16:54;2.40;;;2.10;;
11238;SDS011;5677;48.488;13.436;2023-02-15T10:19:32;3.00;;;2.57;;
11238;SDS011;5677;48.488;13.436;2023-02-15T10:22:10;2.53;;;2.33;;
11238;SDS011;5677;48.488;13.436;2023-02-15T10:24:53;2.17;;;1.97;;
11238;SDS011;5677;48.488;13.436;2023-02-15T10:27:36;2.73;;;2.20;;
11238;SDS011;5677;48.488;13.436;2023-02-15T10:30:11;2.77;;;2.30;;
11238;SDS011;5677;48.488;13.436;2023-02-15T10:32:41;2.50;;;2.07;;
11238;SDS011;5677;48.488;13.436;2023-02-15T10:35:17;2.83;;;2.20;;
11238;SDS011;5677;48.488;13.436;2023-02-15T10:37:53;2.30;;;2.10;;
11238;SDS011;5677;48.488;13.436;2023-02-15T10:40:33;2.73;;;2.20;;
11238;SDS011;5677;48.488;13.436;2023-02-15T10:43:11;2.70;;;2.50;;
11238;SDS011;5677;48.488;13.436;2023-02-15T10:45:49;3.10;;;2.50;;
11238;SDS011;5677;48.488;13.436;2023-02-15T10:51:28;1.90;;;1.80;;
11238;SDS011;5677;48.488;13.436;2023-02-15T10:54:05;2.50;;;2.20;;
11238;SDS011;5677;48.488;13.436;2023-02-15T10:56:41;3.17;;;2.40;;
11238;SDS011;5677;48.488;13.436;2023-02-15T10:59:19;2.70;;;2.20;;
11238;SDS011;5677;48.488;13.436;2023-02-15T11:02:04;2.40;;;2.20;;
11238;SDS011;5677;48.488;13.436;2023-02-15T11:04:46;2.20;;;2.00;;
11238;SDS011;5677;48.488;13.436;2023-02-15T11:07:20;2.30;;;2.00;;
11238;SDS011;5677;48.488;13.436;2023-02-15T11:09:50;2.50;;;2.30;;
11238;SDS011;5677;48.488;13.436;2023-02-15T11:12:22;2.47;;;2.27;;
11238;SDS011;5677;48.488;13.436;2023-02-15T11:14:54;3.07;;;1.93;;
11238;SDS011;5677;48.488;13.436;2023-02-15T11:17:25;2.13;;;1.83;;
11238;SDS011;5677;48.488;13.436;2023-02-15T11:20:02;2.20;;;2.00;;
11238;SDS011;5677;48.488;13.436;2023-02-15T11:22:35;2.10;;;1.90;;
11238;SDS011;5677;48.488;13.436;2023-02-15T11:25:04;2.57;;;1.93;;
11238;SDS011;5677;48.488;13.436;2023-02-15T11:27:43;2.30;;;2.10;;
11238;SDS011;5677;48.488;13.436;2023-02-15T11:30:14;2.67;;;2.10;;
11238;SDS011;5677;48.488;13.436;2023-02-15T11:32:44;3.37;;;2.43;;
11238;SDS011;5677;48.488;13.436;2023-02-15T11:35:18;2.60;;;2.40;;
11238;SDS011;5677;48.488;13.436;2023-02-15T11:37:48;2.07;;;1.93;;
11238;SDS011;5677;48.488;13.436;2023-02-15T11:40:20;3.23;;;2.63;;
11238;SDS011;5677;48.488;13.436;2023-02-15T11:42:51;2.40;;;2.20;;
11238;SDS011;5677;48.488;13.436;2023-02-15T11:45:22;2.63;;;2.17;;
11238;SDS011;5677;48.488;13.436;2023-02-15T11:47:52;2.43;;;2.10;;
11238;SDS011;5677;48.488;13.436;2023-02-15T11:50:21;2.77;;;2.10;;
11238;SDS011;5677;48.488;13.436;2023-02-15T11:52:50;1.93;;;1.73;;
11238;SDS011;5677;48.488;13.436;2023-02-15T11:55:19;2.70;;;2.10;;
11238;SDS011;5677;48.488;13.436;2023-02-15T11:57:49;2.60;;;2.10;;
11238;SDS011;5677;48.488;13.436;2023-02-15T12:00:24;2.10;;;1.90;;
11238;SDS011;5677;48.488;13.436;2023-02-15T12:03:01;2.50;;;2.00;;
11238;SDS011;5677;48.488;13.436;2023-02-15T12:05:35;2.40;;;2.20;;
11238;SDS011;5677;48.488;13.436;2023-02-15T12:08:09;2.10;;;1.90;;
11238;SDS011;5677;48.488;13.436;2023-02-15T12:10:40;2.37;;;2.17;;
11238;SDS011;5677;48.488;13.436;2023-02-15T12:13:15;2.77;;;2.17;;
11238;SDS011;5677;48.488;13.436;2023-02-15T12:15:44;3.17;;;2.40;;
11238;SDS011;5677;48.488;13.436;2023-02-15T12:18:21;2.17;;;1.97;;
11238;SDS011;5677;48.488;13.436;2023-02-15T12:20:59;3.13;;;2.27;;
11238;SDS011;5677;48.488;13.436;2023-02-15T12:23:29;2.50;;;2.30;;
11238;SDS011;5677;48.488;13.436;2023-02-15T12:25:58;2.83;;;2.53;;
11238;SDS011;5677;48.488;13.436;2023-02-15T12:28:26;3.00;;;2.27;;
11238;SDS011;5677;48.488;13.436;2023-02-15T12:30:58;2.30;;;2.00;;
11238;SDS011;5677;48.488;13.436;2023-02-15T12:33:28;2.20;;;2.00;;
11238;SDS011;5677;48.488;13.436;2023-02-15T12:35:58;2.30;;;2.10;;
11238;SDS011;5677;48.488;13.436;2023-02-15T12:38:29;2.67;;;2.40;;
11238;SDS011;5677;48.488;13.436;2023-02-15T12:40:56;2.70;;;2.27;;
11238;SDS011;5677;48.488;13.436;2023-02-15T12:43:25;2.37;;;2.17;;
11238;SDS011;5677;48.488;13.436;2023-02-15T12:46:13;2.50;;;2.30;;
11238;SDS011;5677;48.488;13.436;2023-02-15T12:48:45;2.63;;;2.17;;
11238;SDS011;5677;48.488;13.436;2023-02-15T12:51:14;2.90;;;2.10;;
11238;SDS011;5677;48.488;13.436;2023-02-15T12:53:41;2.53;;;2.07;;
11238;SDS011;5677;48.488;13.436;2023-02-15T12:56:09;2.47;;;2.00;;
11238;SDS011;5677;48.488;13.436;2023-02-15T12:58:36;2.40;;;2.20;;
11238;SDS011;5677;48.488;13.436;2023-02-15T13:01:10;2.90;;;2.30;;
11238;SDS011;5677;48.488;13.436;2023-02-15T13:03:38;2.30;;;1.80;;
11238;SDS011;5677;48.488;13.436;2023-02-15T13:06:21;2.83;;;2.20;;
11238;SDS011;5677;48.488;13.436;2023-02-15T13:08:49;2.40;;;2.10;;
11238;SDS011;5677;48.488;13.436;2023-02-15T13:11:19;2.67;;;2.20;;
11238;SDS011;5677;48.488;13.436;2023-02-15T13:13:52;2.43;;;2.17;;
11238;SDS011;5677;48.488;13.436;2023-02-15T13:16:21;2.30;;;2.10;;
11238;SDS011;5677;48.488;13.436;2023-02-15T13:18:55;2.53;;;2.07;;
11238;SDS011;5677;48.488;13.436;2023-02-15T13:21:26;2.07;;;1.87;;
11238;SDS011;5677;48.488;13.436;2023-02-15T13:23:59;2.40;;;2.20;;
11238;SDS011;5677;48.488;13.436;2023-02-15T13:26:29;2.60;;;2.20;;
11238;SDS011;5677;48.488;13.436;2023-02-15T13:28:58;2.50;;;2.30;;
11238;SDS011;5677;48.488;13.436;2023-02-15T13:31:33;2.40;;;2.20;;
11238;SDS011;5677;48.488;13.436;2023-02-15T13:34:02;2.43;;;2.07;;
11238;SDS011;5677;48.488;13.436;2023-02-15T13:36:37;2.20;;;2.00;;
11238;SDS011;5677;48.488;13.436;2023-02-15T13:39:13;2.47;;;2.03;;
11238;SDS011;5677;48.488;13.436;2023-02-15T13:41:50;2.63;;;2.37;;
11238;SDS011;5677;48.488;13.436;2023-02-15T13:44:25;2.40;;;2.10;;
11238;SDS011;5677;48.488;13.436;2023-02-15T13:47:05;2.70;;;2.20;;
11238;SDS011;5677;48.488;13.436;2023-02-15T13:49:44;2.20;;;2.00;;
11238;SDS011;5677;48.488;13.436;2023-02-15T13:52:23;2.63;;;2.37;;
11238;SDS011;5677;48.488;13.436;2023-02-15T13:57:54;2.17;;;1.97;;
11238;SDS011;5677;48.488;13.436;2023-02-15T14:00:35;2.60;;;2.10;;
11238;SDS011;5677;48.488;13.436;2023-02-15T14:03:25;2.10;;;1.90;;
11238;SDS011;5677;48.488;13.436;2023-02-15T14:06:12;2.57;;;2.23;;
11238;SDS011;5677;48.488;13.436;2023-02-15T14:08:54;2.43;;;2.10;;
11238;SDS011;5677;48.488;13.436;2023-02-15T14:11:35;2.60;;;2.20;;
11238;SDS011;5677;48.488;13.436;2023-02-15T14:14:12;2.90;;;2.30;;
11238;SDS011;5677;48.488;13.436;2023-02-15T14:16:53;2.30;;;2.07;;
11238;SDS011;5677;48.488;13.436;2023-02-15T14:19:25;2.50;;;2.10;;
11238;SDS011;5677;48.488;13.436;2023-02-15T14:21:59;2.37;;;2.00;;
11238;SDS011;5677;48.488;13.436;2023-02-15T14:24:36;2.63;;;2.13;;
11238;SDS011;5677;48.488;13.436;2023-02-15T14:27:10;2.60;;;2.23;;
11238;SDS011;5677;48.488;13.436;2023-02-15T14:29:46;2.50;;;2.30;;
11238;SDS011;5677;48.488;13.436;2023-02-15T14:32:18;2.30;;;2.10;;
11238;SDS011;5677;48.488;13.436;2023-02-15T14:34:52;2.17;;;1.77;;
11238;SDS011;5677;48.488;13.436;2023-02-15T14:37:22;2.20;;;2.00;;
11238;SDS011;5677;48.488;13.436;2023-02-15T14:40:01;2.33;;;2.13;;
11238;SDS011;5677;48.488;13.436;2023-02-15T14:42:50;2.30;;;2.10;;
11238;SDS011;5677;48.488;13.436;2023-02-15T14:45:21;2.30;;;2.10;;
11238;SDS011;5677;48.488;13.436;2023-02-15T14:47:56;2.50;;;1.97;;
11238;SDS011;5677;48.488;13.436;2023-02-15T14:50:38;2.87;;;2.30;;
11238;SDS011;5677;48.488;13.436;2023-02-15T14:53:24;2.17;;;1.93;;
11238;SDS011;5677;48.488;13.436;2023-02-15T14:56:22;2.43;;;2.17;;
11238;SDS011;5677;48.488;13.436;2023-02-15T14:59:12;2.10;;;1.90;;
11238;SDS011;5677;48.488;13.436;2023-02-15T15:01:42;2.20;;;1.93;;
11238;SDS011;5677;48.488;13.436;2023-02-15T15:04:22;2.60;;;2.40;;
11238;SDS011;5677;48.488;13.436;2023-02-15T15:06:57;2.60;;;2.13;;
11238;SDS011;5677;48.488;13.436;2023-02-15T15:09:35;2.30;;;2.10;;
11238;SDS011;5677;48.488;13.436;2023-02-15T15:12:15;2.30;;;2.10;;
11238;SDS011;5677;48.488;13.436;2023-02-15T15:14:56;1.80;;;1.70;;
11238;SDS011;5677;48.488;13.436;2023-02-15T15:26:20;1.97;;;1.77;;
11238;SDS011;5677;48.488;13.436;2023-02-15T15:28:54;2.57;;;1.97;;
11238;SDS011;5677;48.488;13.436;2023-02-15T15:31:41;2.30;;;2.00;;
11238;SDS011;5677;48.488;13.436;2023-02-15T15:34:22;3.17;;;2.30;;
11238;SDS011;5677;48.488;13.436;2023-02-15T15:43:11;1.93;;;1.73;;